sensor_id;sensor_type;location;lat;lon;timestamp;P1;durP1;ratioP1;P2;durP2;ratioP2
58697;SDS011;44475;53.206;-6.106;2023-03-14T00:01:11;10.35;;;1.70;;
58697;SDS011;44475;53.206;-6.106;2023-03-14T00:03:39;8.13;;;1.80;;
58697;SDS011;44475;53.206;-6.106;2023-03-14T00:06:09;6.65;;;1.77;;
58697;SDS011;44475;53.206;-6.106;2023-03-14T00:08:36;6.45;;;1.63;;
58697;SDS011;44475;53.206;-6.106;2023-03-14T00:11:21;4.70;;;1.70;;
58697;SDS011;44475;53.206;-6.106;2023-03-14T00:13:50;6.55;;;1.95;;
58697;SDS011;44475;53.206;-6.106;2023-03-14T00:16:18;5.13;;;1.52;;
58697;SDS011;44475;53.206;-6.106;2023-03-14T00:18:45;5.93;;;1.80;;
58697;SDS011;44475;53.206;-6.106;2023-03-14T00:21:12;5.88;;;1.70;;
58697;SDS011;44475;53.206;-6.106;2023-03-14T00:23:39;5.40;;;1.80;;
58697;SDS011;44475;53.206;-6.106;2023-03-14T00:26:14;6.20;;;1.60;;
58697;SDS011;44475;53.206;-6.106;2023-03-14T00:28:45;6.15;;;2.33;;
58697;SDS011;44475;53.206;-6.106;2023-03-14T00:31:13;7.47;;;1.63;;
58697;SDS011;44475;53.206;-6.106;2023-03-14T00:33:41;5.85;;;1.80;;
58697;SDS011;44475;53.206;-6.106;2023-03-14T00:36:09;4.20;;;1.70;;
58697;SDS011;44475;53.206;-6.106;2023-03-14T00:38:46;4.57;;;1.60;;
58697;SDS011;44475;53.206;-6.106;2023-03-14T00:41:15;4.65;;;1.70;;
58697;SDS011;44475;53.206;-6.106;2023-03-14T00:43:47;5.43;;;1.80;;
58697;SDS011;44475;53.206;-6.106;2023-03-14T00:46:14;3.92;;;1.60;;
58697;SDS011;44475;53.206;-6.106;2023-03-14T00:48:43;4.68;;;1.70;;
58697;SDS011;44475;53.206;-6.106;2023-03-14T00:51:11;3.55;;;1.55;;
58697;SDS011;44475;53.206;-6.106;2023-03-14T00:53:42;3.78;;;1.60;;
58697;SDS011;44475;53.206;-6.106;2023-03-14T00:56:09;4.97;;;1.80;;
58697;SDS011;44475;53.206;-6.106;2023-03-14T00:58:37;3.20;;;1.48;;
58697;SDS011;44475;53.206;-6.106;2023-03-14T01:01:13;4.82;;;1.70;;
58697;SDS011;44475;53.206;-6.106;2023-03-14T01:03:59;2.38;;;1.50;;
58697;SDS011;44475;53.206;-6.106;2023-03-14T01:06:27;2.92;;;1.67;;
58697;SDS011;44475;53.206;-6.106;2023-03-14T01:08:54;4.05;;;1.60;;
58697;SDS011;44475;53.206;-6.106;2023-03-14T01:11:24;8.00;;;2.13;;
58697;SDS011;44475;53.206;-6.106;2023-03-14T01:13:52;6.70;;;1.65;;
58697;SDS011;44475;53.206;-6.106;2023-03-14T01:16:20;3.05;;;1.60;;
58697;SDS011;44475;53.206;-6.106;2023-03-14T01:18:48;3.35;;;1.38;;
58697;SDS011;44475;53.206;-6.106;2023-03-14T01:21:23;2.15;;;1.40;;
58697;SDS011;44475;53.206;-6.106;2023-03-14T01:23:51;5.18;;;1.60;;
58697;SDS011;44475;53.206;-6.106;2023-03-14T01:26:20;3.75;;;1.42;;
58697;SDS011;44475;53.206;-6.106;2023-03-14T01:28:49;3.88;;;1.50;;
58697;SDS011;44475;53.206;-6.106;2023-03-14T01:31:17;2.15;;;1.38;;
58697;SDS011;44475;53.206;-6.106;2023-03-14T01:33:44;2.60;;;1.50;;
58697;SDS011;44475;53.206;-6.106;2023-03-14T01:36:11;2.60;;;1.60;;
58697;SDS011;44475;53.206;-6.106;2023-03-14T01:38:39;2.63;;;1.60;;
58697;SDS011;44475;53.206;-6.106;2023-03-14T01:41:15;2.88;;;1.60;;
58697;SDS011;44475;53.206;-6.106;2023-03-14T01:46:29;3.28;;;1.50;;
58697;SDS011;44475;53.206;-6.106;2023-03-14T01:52:07;2.13;;;1.30;;
58697;SDS011;44475;53.206;-6.106;2023-03-14T01:54:53;1.67;;;1.30;;
58697;SDS011;44475;53.206;-6.106;2023-03-14T01:57:32;2.65;;;1.38;;
58697;SDS011;44475;53.206;-6.106;2023-03-14T02:00:08;2.35;;;1.33;;
58697;SDS011;44475;53.206;-6.106;2023-03-14T02:02:41;2.85;;;1.50;;
58697;SDS011;44475;53.206;-6.106;2023-03-14T02:05:10;3.15;;;1.50;;
58697;SDS011;44475;53.206;-6.106;2023-03-14T02:07:46;1.48;;;1.15;;
58697;SDS011;44475;53.206;-6.106;2023-03-14T02:10:25;1.75;;;1.20;;
58697;SDS011;44475;53.206;-6.106;2023-03-14T02:12:56;2.13;;;1.40;;
58697;SDS011;44475;53.206;-6.106;2023-03-14T02:15:37;2.38;;;1.20;;
58697;SDS011;44475;53.206;-6.106;2023-03-14T02:18:10;2.30;;;1.45;;
58697;SDS011;44475;53.206;-6.106;2023-03-14T02:21:05;1.73;;;1.13;;
58697;SDS011;44475;53.206;-6.106;2023-03-14T02:26:25;2.20;;;1.30;;
58697;SDS011;44475;53.206;-6.106;2023-03-14T02:28:56;2.55;;;1.30;;
58697;SDS011;44475;53.206;-6.106;2023-03-14T02:31:23;3.55;;;1.40;;
58697;SDS011;44475;53.206;-6.106;2023-03-14T02:33:50;2.38;;;1.30;;
58697;SDS011;44475;53.206;-6.106;2023-03-14T02:36:17;2.22;;;1.27;;
58697;SDS011;44475;53.206;-6.106;2023-03-14T02:38:47;3.60;;;1.40;;
58697;SDS011;44475;53.206;-6.106;2023-03-14T02:41:34;2.25;;;1.38;;
58697;SDS011;44475;53.206;-6.106;2023-03-14T02:44:03;2.58;;;1.40;;
58697;SDS011;44475;53.206;-6.106;2023-03-14T02:46:30;1.25;;;1.10;;
58697;SDS011;44475;53.206;-6.106;2023-03-14T02:49:10;1.23;;;1.05;;
58697;SDS011;44475;53.206;-6.106;2023-03-14T02:51:39;2.35;;;1.30;;
58697;SDS011;44475;53.206;-6.106;2023-03-14T02:54:10;4.18;;;1.40;;
58697;SDS011;44475;53.206;-6.106;2023-03-14T02:56:37;2.13;;;1.15;;
58697;SDS011;44475;53.206;-6.106;2023-03-14T02:59:04;2.00;;;1.20;;
58697;SDS011;44475;53.206;-6.106;2023-03-14T03:01:56;1.85;;;1.17;;
58697;SDS011;44475;53.206;-6.106;2023-03-14T03:04:25;1.85;;;1.25;;
58697;SDS011;44475;53.206;-6.106;2023-03-14T03:06:51;1.48;;;1.10;;
58697;SDS011;44475;53.206;-6.106;2023-03-14T03:09:18;1.30;;;1.00;;
58697;SDS011;44475;53.206;-6.106;2023-03-14T03:11:44;1.20;;;1.10;;
58697;SDS011;44475;53.206;-6.106;2023-03-14T03:14:16;1.65;;;1.20;;
58697;SDS011;44475;53.206;-6.106;2023-03-14T03:16:42;1.45;;;1.20;;
58697;SDS011;44475;53.206;-6.106;2023-03-14T03:19:09;2.83;;;1.20;;
58697;SDS011;44475;53.206;-6.106;2023-03-14T03:21:35;2.15;;;1.13;;
58697;SDS011;44475;53.206;-6.106;2023-03-14T03:24:03;1.67;;;1.00;;
58697;SDS011;44475;53.206;-6.106;2023-03-14T03:26:33;2.22;;;1.20;;
58697;SDS011;44475;53.206;-6.106;2023-03-14T03:29:03;2.67;;;1.15;;
58697;SDS011;44475;53.206;-6.106;2023-03-14T03:31:30;1.60;;;1.20;;
58697;SDS011;44475;53.206;-6.106;2023-03-14T03:33:57;1.88;;;1.27;;
58697;SDS011;44475;53.206;-6.106;2023-03-14T03:36:24;1.50;;;1.20;;
58697;SDS011;44475;53.206;-6.106;2023-03-14T03:38:51;3.38;;;1.10;;
58697;SDS011;44475;53.206;-6.106;2023-03-14T03:41:18;1.90;;;1.00;;
58697;SDS011;44475;53.206;-6.106;2023-03-14T03:43:45;1.42;;;1.10;;
58697;SDS011;44475;53.206;-6.106;2023-03-14T03:46:14;1.25;;;1.08;;
58697;SDS011;44475;53.206;-6.106;2023-03-14T03:48:41;1.30;;;1.10;;
58697;SDS011;44475;53.206;-6.106;2023-03-14T03:51:10;1.08;;;1.00;;
58697;SDS011;44475;53.206;-6.106;2023-03-14T03:53:41;1.45;;;1.02;;
58697;SDS011;44475;53.206;-6.106;2023-03-14T03:56:10;1.77;;;1.10;;
58697;SDS011;44475;53.206;-6.106;2023-03-14T03:58:38;1.48;;;1.30;;
58697;SDS011;44475;53.206;-6.106;2023-03-14T04:01:05;1.38;;;1.10;;
58697;SDS011;44475;53.206;-6.106;2023-03-14T04:03:32;2.65;;;1.10;;
58697;SDS011;44475;53.206;-6.106;2023-03-14T04:06:07;1.00;;;1.00;;
58697;SDS011;44475;53.206;-6.106;2023-03-14T04:08:37;2.25;;;1.00;;
58697;SDS011;44475;53.206;-6.106;2023-03-14T04:11:06;1.48;;;1.00;;
58697;SDS011;44475;53.206;-6.106;2023-03-14T04:13:46;1.00;;;0.90;;
58697;SDS011;44475;53.206;-6.106;2023-03-14T04:16:17;2.17;;;1.10;;
58697;SDS011;44475;53.206;-6.106;2023-03-14T04:18:47;1.10;;;1.00;;
58697;SDS011;44475;53.206;-6.106;2023-03-14T04:21:14;1.63;;;1.00;;
58697;SDS011;44475;53.206;-6.106;2023-03-14T04:23:45;1.13;;;1.02;;
58697;SDS011;44475;53.206;-6.106;2023-03-14T04:26:13;1.35;;;1.10;;
58697;SDS011;44475;53.206;-6.106;2023-03-14T04:28:39;1.02;;;0.93;;
58697;SDS011;44475;53.206;-6.106;2023-03-14T04:31:08;1.42;;;1.08;;
58697;SDS011;44475;53.206;-6.106;2023-03-14T04:33:36;1.10;;;1.00;;
58697;SDS011;44475;53.206;-6.106;2023-03-14T04:36:03;1.63;;;1.05;;
58697;SDS011;44475;53.206;-6.106;2023-03-14T04:38:34;1.13;;;1.00;;
58697;SDS011;44475;53.206;-6.106;2023-03-14T04:41:01;1.83;;;1.00;;
58697;SDS011;44475;53.206;-6.106;2023-03-14T04:43:31;1.00;;;1.00;;
58697;SDS011;44475;53.206;-6.106;2023-03-14T04:46:04;1.00;;;0.90;;
58697;SDS011;44475;53.206;-6.106;2023-03-14T04:48:31;0.80;;;0.80;;
58697;SDS011;44475;53.206;-6.106;2023-03-14T04:50:59;1.35;;;1.10;;
58697;SDS011;44475;53.206;-6.106;2023-03-14T04:53:29;1.90;;;1.10;;
58697;SDS011;44475;53.206;-6.106;2023-03-14T04:55:57;2.17;;;1.10;;
58697;SDS011;44475;53.206;-6.106;2023-03-14T04:58:29;1.67;;;1.20;;
58697;SDS011;44475;53.206;-6.106;2023-03-14T05:01:03;1.33;;;0.95;;
58697;SDS011;44475;53.206;-6.106;2023-03-14T05:03:43;1.08;;;1.00;;
58697;SDS011;44475;53.206;-6.106;2023-03-14T05:06:09;1.17;;;1.08;;
58697;SDS011;44475;53.206;-6.106;2023-03-14T05:08:59;1.10;;;1.00;;
58697;SDS011;44475;53.206;-6.106;2023-03-14T05:12:01;0.90;;;0.90;;
58697;SDS011;44475;53.206;-6.106;2023-03-14T05:14:51;1.30;;;1.00;;
58697;SDS011;44475;53.206;-6.106;2023-03-14T05:17:41;1.30;;;1.00;;
58697;SDS011;44475;53.206;-6.106;2023-03-14T05:20:40;0.90;;;0.88;;
58697;SDS011;44475;53.206;-6.106;2023-03-14T05:23:24;1.73;;;1.10;;
58697;SDS011;44475;53.206;-6.106;2023-03-14T05:26:26;0.90;;;0.85;;
58697;SDS011;44475;53.206;-6.106;2023-03-14T05:31:54;2.60;;;2.17;;
58697;SDS011;44475;53.206;-6.106;2023-03-14T05:34:32;1.88;;;1.10;;
58697;SDS011;44475;53.206;-6.106;2023-03-14T05:37:22;1.75;;;1.15;;
58697;SDS011;44475;53.206;-6.106;2023-03-14T05:40:18;1.10;;;0.82;;
58697;SDS011;44475;53.206;-6.106;2023-03-14T05:42:54;1.65;;;1.13;;
58697;SDS011;44475;53.206;-6.106;2023-03-14T05:45:45;2.25;;;1.05;;
58697;SDS011;44475;53.206;-6.106;2023-03-14T05:48:34;1.40;;;0.90;;
58697;SDS011;44475;53.206;-6.106;2023-03-14T05:51:26;1.13;;;1.00;;
58697;SDS011;44475;53.206;-6.106;2023-03-14T05:54:15;2.25;;;1.05;;
58697;SDS011;44475;53.206;-6.106;2023-03-14T05:57:08;1.55;;;1.10;;
58697;SDS011;44475;53.206;-6.106;2023-03-14T05:59:58;1.15;;;1.05;;
58697;SDS011;44475;53.206;-6.106;2023-03-14T06:02:44;1.67;;;1.00;;
58697;SDS011;44475;53.206;-6.106;2023-03-14T06:05:20;1.45;;;0.98;;
58697;SDS011;44475;53.206;-6.106;2023-03-14T06:07:55;0.90;;;0.90;;
58697;SDS011;44475;53.206;-6.106;2023-03-14T06:10:22;2.47;;;1.08;;
58697;SDS011;44475;53.206;-6.106;2023-03-14T06:12:48;2.47;;;1.10;;
58697;SDS011;44475;53.206;-6.106;2023-03-14T06:15:14;2.17;;;1.15;;
58697;SDS011;44475;53.206;-6.106;2023-03-14T06:17:42;1.35;;;1.15;;
58697;SDS011;44475;53.206;-6.106;2023-03-14T06:20:11;1.63;;;1.20;;
58697;SDS011;44475;53.206;-6.106;2023-03-14T06:22:39;2.13;;;1.10;;
58697;SDS011;44475;53.206;-6.106;2023-03-14T06:25:09;1.45;;;1.00;;
58697;SDS011;44475;53.206;-6.106;2023-03-14T06:27:35;1.40;;;1.08;;
58697;SDS011;44475;53.206;-6.106;2023-03-14T06:30:02;4.82;;;1.27;;
58697;SDS011;44475;53.206;-6.106;2023-03-14T06:32:33;1.80;;;1.10;;
58697;SDS011;44475;53.206;-6.106;2023-03-14T06:35:05;1.85;;;1.20;;
58697;SDS011;44475;53.206;-6.106;2023-03-14T06:37:35;2.17;;;1.10;;
58697;SDS011;44475;53.206;-6.106;2023-03-14T06:40:02;2.25;;;1.10;;
58697;SDS011;44475;53.206;-6.106;2023-03-14T06:42:51;2.20;;;1.20;;
58697;SDS011;44475;53.206;-6.106;2023-03-14T06:45:20;2.17;;;1.20;;
58697;SDS011;44475;53.206;-6.106;2023-03-14T06:47:46;1.83;;;1.02;;
58697;SDS011;44475;53.206;-6.106;2023-03-14T06:50:14;1.95;;;1.10;;
58697;SDS011;44475;53.206;-6.106;2023-03-14T06:52:41;1.83;;;1.13;;
58697;SDS011;44475;53.206;-6.106;2023-03-14T06:57:41;0.85;;;0.80;;
58697;SDS011;44475;53.206;-6.106;2023-03-14T07:00:12;3.13;;;1.20;;
58697;SDS011;44475;53.206;-6.106;2023-03-14T07:02:42;2.33;;;1.20;;
58697;SDS011;44475;53.206;-6.106;2023-03-14T07:05:18;1.95;;;1.10;;
58697;SDS011;44475;53.206;-6.106;2023-03-14T07:07:45;2.00;;;1.20;;
58697;SDS011;44475;53.206;-6.106;2023-03-14T07:10:11;3.50;;;1.00;;
58697;SDS011;44475;53.206;-6.106;2023-03-14T07:12:38;3.10;;;1.05;;
58697;SDS011;44475;53.206;-6.106;2023-03-14T07:15:04;2.17;;;1.35;;
58697;SDS011;44475;53.206;-6.106;2023-03-14T07:17:32;1.58;;;1.10;;
58697;SDS011;44475;53.206;-6.106;2023-03-14T07:19:58;1.70;;;1.20;;
58697;SDS011;44475;53.206;-6.106;2023-03-14T07:22:28;4.00;;;1.15;;
58697;SDS011;44475;53.206;-6.106;2023-03-14T07:24:55;2.28;;;1.17;;
58697;SDS011;44475;53.206;-6.106;2023-03-14T07:27:24;2.45;;;1.30;;
58697;SDS011;44475;53.206;-6.106;2023-03-14T07:29:53;4.57;;;1.20;;
58697;SDS011;44475;53.206;-6.106;2023-03-14T07:32:25;2.72;;;1.20;;
58697;SDS011;44475;53.206;-6.106;2023-03-14T07:34:51;6.65;;;1.40;;
58697;SDS011;44475;53.206;-6.106;2023-03-14T07:37:18;2.47;;;1.20;;
58697;SDS011;44475;53.206;-6.106;2023-03-14T07:39:44;3.60;;;1.17;;
58697;SDS011;44475;53.206;-6.106;2023-03-14T07:42:17;5.22;;;1.40;;
58697;SDS011;44475;53.206;-6.106;2023-03-14T07:45:02;4.78;;;1.38;;
58697;SDS011;44475;53.206;-6.106;2023-03-14T07:47:32;4.68;;;1.40;;
58697;SDS011;44475;53.206;-6.106;2023-03-14T07:49:58;3.83;;;1.17;;
58697;SDS011;44475;53.206;-6.106;2023-03-14T07:52:25;3.90;;;1.40;;
58697;SDS011;44475;53.206;-6.106;2023-03-14T07:54:51;3.47;;;1.40;;
58697;SDS011;44475;53.206;-6.106;2023-03-14T07:57:17;3.30;;;1.50;;
58697;SDS011;44475;53.206;-6.106;2023-03-14T07:59:44;5.18;;;1.33;;
58697;SDS011;44475;53.206;-6.106;2023-03-14T08:02:13;5.70;;;1.50;;
58697;SDS011;44475;53.206;-6.106;2023-03-14T08:04:40;3.80;;;1.30;;
58697;SDS011;44475;53.206;-6.106;2023-03-14T08:07:07;4.70;;;1.77;;
58697;SDS011;44475;53.206;-6.106;2023-03-14T08:09:33;2.25;;;1.25;;
58697;SDS011;44475;53.206;-6.106;2023-03-14T08:12:00;5.78;;;1.30;;
58697;SDS011;44475;53.206;-6.106;2023-03-14T08:14:26;3.58;;;1.35;;
58697;SDS011;44475;53.206;-6.106;2023-03-14T08:16:54;2.70;;;1.30;;
58697;SDS011;44475;53.206;-6.106;2023-03-14T08:19:21;3.38;;;1.42;;
58697;SDS011;44475;53.206;-6.106;2023-03-14T08:21:50;3.47;;;1.33;;
58697;SDS011;44475;53.206;-6.106;2023-03-14T08:24:16;2.50;;;1.30;;
58697;SDS011;44475;53.206;-6.106;2023-03-14T08:26:42;4.13;;;1.40;;
58697;SDS011;44475;53.206;-6.106;2023-03-14T08:29:09;2.15;;;1.35;;
58697;SDS011;44475;53.206;-6.106;2023-03-14T08:31:35;3.38;;;1.42;;
58697;SDS011;44475;53.206;-6.106;2023-03-14T08:34:02;2.80;;;1.30;;
58697;SDS011;44475;53.206;-6.106;2023-03-14T08:36:29;3.95;;;1.30;;
58697;SDS011;44475;53.206;-6.106;2023-03-14T08:38:56;2.85;;;1.30;;
58697;SDS011;44475;53.206;-6.106;2023-03-14T08:41:22;2.63;;;1.23;;
58697;SDS011;44475;53.206;-6.106;2023-03-14T08:43:49;3.45;;;1.50;;
58697;SDS011;44475;53.206;-6.106;2023-03-14T08:46:15;2.30;;;1.30;;
58697;SDS011;44475;53.206;-6.106;2023-03-14T08:48:48;1.95;;;1.30;;
58697;SDS011;44475;53.206;-6.106;2023-03-14T08:51:14;3.63;;;1.50;;
58697;SDS011;44475;53.206;-6.106;2023-03-14T08:53:41;2.22;;;1.27;;
58697;SDS011;44475;53.206;-6.106;2023-03-14T08:56:10;3.63;;;1.42;;
58697;SDS011;44475;53.206;-6.106;2023-03-14T08:58:36;3.20;;;1.40;;
58697;SDS011;44475;53.206;-6.106;2023-03-14T09:01:07;2.03;;;1.20;;
58697;SDS011;44475;53.206;-6.106;2023-03-14T09:03:35;3.00;;;1.30;;
58697;SDS011;44475;53.206;-6.106;2023-03-14T09:06:03;2.80;;;1.40;;
58697;SDS011;44475;53.206;-6.106;2023-03-14T09:08:30;2.75;;;1.60;;
58697;SDS011;44475;53.206;-6.106;2023-03-14T09:10:57;2.75;;;1.33;;
58697;SDS011;44475;53.206;-6.106;2023-03-14T09:13:23;3.35;;;1.50;;
58697;SDS011;44475;53.206;-6.106;2023-03-14T09:15:53;1.67;;;1.15;;
58697;SDS011;44475;53.206;-6.106;2023-03-14T09:18:23;3.13;;;1.55;;
58697;SDS011;44475;53.206;-6.106;2023-03-14T09:20:51;2.22;;;1.27;;
58697;SDS011;44475;53.206;-6.106;2023-03-14T09:23:18;2.35;;;1.33;;
58697;SDS011;44475;53.206;-6.106;2023-03-14T09:25:44;2.60;;;1.48;;
58697;SDS011;44475;53.206;-6.106;2023-03-14T09:28:13;1.52;;;1.30;;
58697;SDS011;44475;53.206;-6.106;2023-03-14T09:30:39;6.18;;;1.30;;
58697;SDS011;44475;53.206;-6.106;2023-03-14T09:33:06;9.77;;;2.03;;
58697;SDS011;44475;53.206;-6.106;2023-03-14T09:35:33;11.82;;;1.80;;
58697;SDS011;44475;53.206;-6.106;2023-03-14T09:38:00;7.55;;;1.60;;
58697;SDS011;44475;53.206;-6.106;2023-03-14T09:40:27;10.73;;;1.77;;
58697;SDS011;44475;53.206;-6.106;2023-03-14T09:45:31;13.25;;;2.13;;
58697;SDS011;44475;53.206;-6.106;2023-03-14T09:48:02;12.93;;;2.40;;
58697;SDS011;44475;53.206;-6.106;2023-03-14T09:50:48;14.75;;;3.00;;
58697;SDS011;44475;53.206;-6.106;2023-03-14T09:53:18;22.05;;;3.25;;
58697;SDS011;44475;53.206;-6.106;2023-03-14T09:56:32;13.07;;;2.05;;
58697;SDS011;44475;53.206;-6.106;2023-03-14T09:58:59;10.38;;;2.28;;
58697;SDS011;44475;53.206;-6.106;2023-03-14T10:01:30;12.73;;;2.15;;
58697;SDS011;44475;53.206;-6.106;2023-03-14T10:04:00;10.68;;;2.20;;
58697;SDS011;44475;53.206;-6.106;2023-03-14T10:06:32;14.98;;;2.60;;
58697;SDS011;44475;53.206;-6.106;2023-03-14T10:09:00;15.32;;;2.05;;
58697;SDS011;44475;53.206;-6.106;2023-03-14T10:11:27;11.77;;;2.00;;
58697;SDS011;44475;53.206;-6.106;2023-03-14T10:16:28;8.02;;;2.00;;
58697;SDS011;44475;53.206;-6.106;2023-03-14T10:19:04;7.30;;;1.70;;
58697;SDS011;44475;53.206;-6.106;2023-03-14T10:21:39;8.48;;;1.80;;
58697;SDS011;44475;53.206;-6.106;2023-03-14T10:27:19;8.98;;;2.00;;
58697;SDS011;44475;53.206;-6.106;2023-03-14T10:29:58;11.75;;;2.15;;
58697;SDS011;44475;53.206;-6.106;2023-03-14T10:32:33;10.43;;;2.10;;
58697;SDS011;44475;53.206;-6.106;2023-03-14T10:40:30;9.95;;;2.05;;
58697;SDS011;44475;53.206;-6.106;2023-03-14T10:42:59;9.50;;;1.80;;
58697;SDS011;44475;53.206;-6.106;2023-03-14T10:53:16;13.18;;;2.05;;
58697;SDS011;44475;53.206;-6.106;2023-03-14T10:55:44;8.88;;;1.80;;
58697;SDS011;44475;53.206;-6.106;2023-03-14T10:58:44;7.53;;;1.52;;
58697;SDS011;44475;53.206;-6.106;2023-03-14T11:01:31;10.32;;;2.10;;
58697;SDS011;44475;53.206;-6.106;2023-03-14T11:06:38;6.35;;;1.60;;
58697;SDS011;44475;53.206;-6.106;2023-03-14T11:12:01;8.68;;;1.50;;
58697;SDS011;44475;53.206;-6.106;2023-03-14T11:14:46;7.55;;;1.77;;
58697;SDS011;44475;53.206;-6.106;2023-03-14T11:17:27;5.82;;;1.58;;
58697;SDS011;44475;53.206;-6.106;2023-03-14T11:20:25;6.80;;;1.73;;
58697;SDS011;44475;53.206;-6.106;2023-03-14T11:25:49;5.18;;;1.80;;
58697;SDS011;44475;53.206;-6.106;2023-03-14T11:28:37;5.25;;;1.50;;
58697;SDS011;44475;53.206;-6.106;2023-03-14T11:31:16;5.47;;;1.67;;
58697;SDS011;44475;53.206;-6.106;2023-03-14T11:36:27;8.23;;;1.88;;
58697;SDS011;44475;53.206;-6.106;2023-03-14T11:39:03;7.18;;;1.60;;
58697;SDS011;44475;53.206;-6.106;2023-03-14T11:41:41;16.08;;;2.10;;
58697;SDS011;44475;53.206;-6.106;2023-03-14T11:44:16;12.18;;;2.50;;
58697;SDS011;44475;53.206;-6.106;2023-03-14T11:49:36;20.65;;;2.47;;
58697;SDS011;44475;53.206;-6.106;2023-03-14T11:52:09;19.17;;;3.63;;
58697;SDS011;44475;53.206;-6.106;2023-03-14T11:54:46;15.40;;;2.38;;
58697;SDS011;44475;53.206;-6.106;2023-03-14T11:57:20;12.23;;;2.40;;
58697;SDS011;44475;53.206;-6.106;2023-03-14T11:59:52;19.25;;;2.60;;
58697;SDS011;44475;53.206;-6.106;2023-03-14T12:03:32;17.92;;;2.58;;
58697;SDS011;44475;53.206;-6.106;2023-03-14T12:06:15;18.05;;;2.05;;
58697;SDS011;44475;53.206;-6.106;2023-03-14T12:08:49;11.88;;;1.90;;
58697;SDS011;44475;53.206;-6.106;2023-03-14T12:13:53;13.52;;;2.08;;
58697;SDS011;44475;53.206;-6.106;2023-03-14T12:18:52;11.00;;;1.80;;
58697;SDS011;44475;53.206;-6.106;2023-03-14T12:21:19;6.65;;;1.85;;
58697;SDS011;44475;53.206;-6.106;2023-03-14T12:23:54;11.38;;;2.22;;
58697;SDS011;44475;53.206;-6.106;2023-03-14T12:26:26;11.00;;;2.08;;
58697;SDS011;44475;53.206;-6.106;2023-03-14T12:29:22;8.00;;;1.92;;
58697;SDS011;44475;53.206;-6.106;2023-03-14T12:32:06;11.02;;;1.83;;
58697;SDS011;44475;53.206;-6.106;2023-03-14T12:34:41;12.85;;;1.90;;
58697;SDS011;44475;53.206;-6.106;2023-03-14T12:39:45;13.25;;;1.77;;
58697;SDS011;44475;53.206;-6.106;2023-03-14T13:01:28;6.40;;;1.60;;
58697;SDS011;44475;53.206;-6.106;2023-03-14T13:03:55;6.45;;;1.60;;
58697;SDS011;44475;53.206;-6.106;2023-03-14T13:11:55;4.28;;;1.60;;
58697;SDS011;44475;53.206;-6.106;2023-03-14T13:14:27;6.28;;;1.60;;
58697;SDS011;44475;53.206;-6.106;2023-03-14T13:16:55;4.40;;;1.35;;
58697;SDS011;44475;53.206;-6.106;2023-03-14T13:19:25;3.13;;;1.30;;
58697;SDS011;44475;53.206;-6.106;2023-03-14T13:22:01;3.97;;;1.45;;
58697;SDS011;44475;53.206;-6.106;2023-03-14T13:24:35;4.28;;;1.40;;
58697;SDS011;44475;53.206;-6.106;2023-03-14T13:27:01;2.75;;;1.40;;
58697;SDS011;44475;53.206;-6.106;2023-03-14T13:29:28;4.45;;;1.35;;
58697;SDS011;44475;53.206;-6.106;2023-03-14T13:32:01;3.72;;;1.30;;
58697;SDS011;44475;53.206;-6.106;2023-03-14T13:34:44;2.90;;;1.30;;
58697;SDS011;44475;53.206;-6.106;2023-03-14T13:37:19;4.07;;;1.40;;
58697;SDS011;44475;53.206;-6.106;2023-03-14T13:39:55;3.22;;;1.30;;
58697;SDS011;44475;53.206;-6.106;2023-03-14T13:42:26;3.47;;;1.33;;
58697;SDS011;44475;53.206;-6.106;2023-03-14T13:44:55;5.00;;;1.33;;
58697;SDS011;44475;53.206;-6.106;2023-03-14T13:47:25;6.03;;;1.60;;
58697;SDS011;44475;53.206;-6.106;2023-03-14T13:49:52;2.22;;;1.25;;
58697;SDS011;44475;53.206;-6.106;2023-03-14T13:52:29;6.70;;;1.35;;
58697;SDS011;44475;53.206;-6.106;2023-03-14T13:54:58;4.10;;;1.40;;
58697;SDS011;44475;53.206;-6.106;2023-03-14T13:57:26;3.50;;;1.15;;
58697;SDS011;44475;53.206;-6.106;2023-03-14T14:00:03;4.30;;;1.60;;
58697;SDS011;44475;53.206;-6.106;2023-03-14T14:02:32;6.00;;;1.42;;
58697;SDS011;44475;53.206;-6.106;2023-03-14T14:05:01;3.30;;;1.30;;
58697;SDS011;44475;53.206;-6.106;2023-03-14T14:07:28;3.53;;;1.50;;
58697;SDS011;44475;53.206;-6.106;2023-03-14T14:09:55;3.38;;;1.48;;
58697;SDS011;44475;53.206;-6.106;2023-03-14T14:15:30;2.05;;;1.20;;
58697;SDS011;44475;53.206;-6.106;2023-03-14T14:18:00;2.80;;;1.23;;
58697;SDS011;44475;53.206;-6.106;2023-03-14T14:23:16;3.88;;;1.50;;
58697;SDS011;44475;53.206;-6.106;2023-03-14T14:25:50;3.90;;;1.30;;
58697;SDS011;44475;53.206;-6.106;2023-03-14T14:39:24;2.65;;;1.30;;
58697;SDS011;44475;53.206;-6.106;2023-03-14T14:41:52;2.75;;;1.38;;
58697;SDS011;44475;53.206;-6.106;2023-03-14T14:44:38;4.47;;;1.45;;
58697;SDS011;44475;53.206;-6.106;2023-03-14T14:47:11;5.90;;;1.67;;
58697;SDS011;44475;53.206;-6.106;2023-03-14T14:49:39;6.10;;;1.53;;
58697;SDS011;44475;53.206;-6.106;2023-03-14T14:52:17;4.60;;;1.52;;
58697;SDS011;44475;53.206;-6.106;2023-03-14T14:54:52;5.20;;;1.42;;
58697;SDS011;44475;53.206;-6.106;2023-03-14T14:57:24;7.28;;;1.40;;
58697;SDS011;44475;53.206;-6.106;2023-03-14T14:59:56;4.28;;;1.30;;
58697;SDS011;44475;53.206;-6.106;2023-03-14T15:05:20;3.55;;;1.20;;
58697;SDS011;44475;53.206;-6.106;2023-03-14T15:07:48;2.45;;;1.45;;
58697;SDS011;44475;53.206;-6.106;2023-03-14T15:10:20;4.38;;;1.60;;
58697;SDS011;44475;53.206;-6.106;2023-03-14T15:12:48;6.95;;;1.33;;
58697;SDS011;44475;53.206;-6.106;2023-03-14T15:15:15;2.90;;;1.50;;
58697;SDS011;44475;53.206;-6.106;2023-03-14T15:17:44;2.78;;;1.27;;
58697;SDS011;44475;53.206;-6.106;2023-03-14T15:20:15;4.15;;;1.40;;
58697;SDS011;44475;53.206;-6.106;2023-03-14T15:22:43;2.35;;;1.30;;
58697;SDS011;44475;53.206;-6.106;2023-03-14T15:25:10;2.38;;;1.25;;
58697;SDS011;44475;53.206;-6.106;2023-03-14T15:27:36;2.20;;;1.20;;
58697;SDS011;44475;53.206;-6.106;2023-03-14T15:30:11;4.75;;;1.50;;
58697;SDS011;44475;53.206;-6.106;2023-03-14T15:32:38;5.38;;;1.63;;
58697;SDS011;44475;53.206;-6.106;2023-03-14T15:35:05;4.70;;;1.50;;
58697;SDS011;44475;53.206;-6.106;2023-03-14T15:37:32;4.78;;;1.20;;
58697;SDS011;44475;53.206;-6.106;2023-03-14T15:39:59;3.20;;;1.30;;
58697;SDS011;44475;53.206;-6.106;2023-03-14T15:42:25;1.75;;;1.25;;
58697;SDS011;44475;53.206;-6.106;2023-03-14T15:44:51;2.38;;;1.30;;
58697;SDS011;44475;53.206;-6.106;2023-03-14T15:47:18;3.22;;;1.13;;
58697;SDS011;44475;53.206;-6.106;2023-03-14T15:49:44;1.88;;;1.10;;
58697;SDS011;44475;53.206;-6.106;2023-03-14T15:52:13;1.45;;;1.20;;
58697;SDS011;44475;53.206;-6.106;2023-03-14T15:54:40;13.52;;;1.30;;
58697;SDS011;44475;53.206;-6.106;2023-03-14T15:57:09;2.40;;;1.50;;
58697;SDS011;44475;53.206;-6.106;2023-03-14T15:59:39;1.30;;;1.20;;
58697;SDS011;44475;53.206;-6.106;2023-03-14T16:02:05;1.70;;;1.15;;
58697;SDS011;44475;53.206;-6.106;2023-03-14T16:04:31;1.77;;;1.20;;
58697;SDS011;44475;53.206;-6.106;2023-03-14T16:06:58;1.38;;;1.20;;
58697;SDS011;44475;53.206;-6.106;2023-03-14T16:09:24;1.25;;;1.02;;
58697;SDS011;44475;53.206;-6.106;2023-03-14T16:11:53;1.63;;;1.20;;
58697;SDS011;44475;53.206;-6.106;2023-03-14T16:14:20;1.65;;;1.20;;
58697;SDS011;44475;53.206;-6.106;2023-03-14T16:16:46;1.42;;;1.20;;
58697;SDS011;44475;53.206;-6.106;2023-03-14T16:19:16;1.73;;;1.30;;
58697;SDS011;44475;53.206;-6.106;2023-03-14T16:21:43;1.25;;;1.00;;
58697;SDS011;44475;53.206;-6.106;2023-03-14T16:24:09;2.30;;;1.23;;
58697;SDS011;44475;53.206;-6.106;2023-03-14T16:26:36;2.13;;;1.30;;
58697;SDS011;44475;53.206;-6.106;2023-03-14T16:29:02;1.80;;;1.40;;
58697;SDS011;44475;53.206;-6.106;2023-03-14T16:31:29;1.52;;;1.40;;
58697;SDS011;44475;53.206;-6.106;2023-03-14T16:33:59;1.83;;;1.30;;
58697;SDS011;44475;53.206;-6.106;2023-03-14T16:36:27;2.22;;;1.48;;
58697;SDS011;44475;53.206;-6.106;2023-03-14T16:38:54;2.15;;;1.40;;
58697;SDS011;44475;53.206;-6.106;2023-03-14T16:41:23;1.38;;;1.27;;